sensor_id;sensor_type;location;lat;lon;timestamp;temperature;humidity
10057;DHT22;5068;51.286;7.518;2023-09-19T00:01:25;15.50;66.30
10057;DHT22;5068;51.286;7.518;2023-09-19T00:02:59;15.50;66.30
10057;DHT22;5068;51.286;7.518;2023-09-19T00:04:33;15.50;66.10
10057;DHT22;5068;51.286;7.518;2023-09-19T00:06:05;15.50;66.90
10057;DHT22;5068;51.286;7.518;2023-09-19T00:07:39;15.50;66.00
10057;DHT22;5068;51.286;7.518;2023-09-19T00:09:12;15.50;66.10
10057;DHT22;5068;51.286;7.518;2023-09-19T00:10:46;15.50;66.00
10057;DHT22;5068;51.286;7.518;2023-09-19T00:12:20;15.50;66.00
10057;DHT22;5068;51.286;7.518;2023-09-19T00:13:54;15.50;66.00
10057;DHT22;5068;51.286;7.518;2023-09-19T00:15:28;15.50;66.00
10057;DHT22;5068;51.286;7.518;2023-09-19T00:17:01;15.40;65.90
10057;DHT22;5068;51.286;7.518;2023-09-19T00:18:40;15.40;65.70
10057;DHT22;5068;51.286;7.518;2023-09-19T00:20:12;15.40;65.80
10057;DHT22;5068;51.286;7.518;2023-09-19T00:21:47;15.40;65.60
10057;DHT22;5068;51.286;7.518;2023-09-19T00:23:20;15.40;65.30
10057;DHT22;5068;51.286;7.518;2023-09-19T00:24:54;15.40;65.40
10057;DHT22;5068;51.286;7.518;2023-09-19T00:26:27;15.40;65.40
10057;DHT22;5068;51.286;7.518;2023-09-19T00:28:02;15.40;65.30
10057;DHT22;5068;51.286;7.518;2023-09-19T00:29:37;15.30;65.30
10057;DHT22;5068;51.286;7.518;2023-09-19T00:31:11;15.30;65.60
10057;DHT22;5068;51.286;7.518;2023-09-19T00:32:45;15.30;65.60
10057;DHT22;5068;51.286;7.518;2023-09-19T00:34:20;15.30;65.70
10057;DHT22;5068;51.286;7.518;2023-09-19T00:35:54;15.30;65.70
10057;DHT22;5068;51.286;7.518;2023-09-19T00:37:27;15.30;65.60
10057;DHT22;5068;51.286;7.518;2023-09-19T00:39:00;15.20;65.40
10057;DHT22;5068;51.286;7.518;2023-09-19T00:40:34;15.20;65.40
10057;DHT22;5068;51.286;7.518;2023-09-19T00:42:08;15.20;65.40
10057;DHT22;5068;51.286;7.518;2023-09-19T00:43:42;15.20;65.50
10057;DHT22;5068;51.286;7.518;2023-09-19T00:45:17;15.20;65.60
10057;DHT22;5068;51.286;7.518;2023-09-19T00:46:50;15.20;66.10
10057;DHT22;5068;51.286;7.518;2023-09-19T00:48:26;15.20;66.00
10057;DHT22;5068;51.286;7.518;2023-09-19T00:50:01;15.20;66.10
10057;DHT22;5068;51.286;7.518;2023-09-19T00:51:36;15.20;66.00
10057;DHT22;5068;51.286;7.518;2023-09-19T00:53:13;15.10;66.00
10057;DHT22;5068;51.286;7.518;2023-09-19T00:54:50;15.10;66.30
10057;DHT22;5068;51.286;7.518;2023-09-19T00:56:24;15.10;66.00
10057;DHT22;5068;51.286;7.518;2023-09-19T00:57:57;15.10;65.60
10057;DHT22;5068;51.286;7.518;2023-09-19T00:59:30;15.10;65.60
10057;DHT22;5068;51.286;7.518;2023-09-19T01:01:05;15.00;65.50
10057;DHT22;5068;51.286;7.518;2023-09-19T01:02:41;15.10;65.70
10057;DHT22;5068;51.286;7.518;2023-09-19T01:04:15;15.00;65.60
10057;DHT22;5068;51.286;7.518;2023-09-19T01:05:49;15.10;65.90
10057;DHT22;5068;51.286;7.518;2023-09-19T01:07:23;15.00;65.70
10057;DHT22;5068;51.286;7.518;2023-09-19T01:08:57;15.00;65.90
10057;DHT22;5068;51.286;7.518;2023-09-19T01:10:29;15.00;65.90
10057;DHT22;5068;51.286;7.518;2023-09-19T01:12:06;15.00;65.90
10057;DHT22;5068;51.286;7.518;2023-09-19T01:13:52;15.00;66.10
10057;DHT22;5068;51.286;7.518;2023-09-19T01:15:40;15.00;66.00
10057;DHT22;5068;51.286;7.518;2023-09-19T01:17:25;15.00;65.90
10057;DHT22;5068;51.286;7.518;2023-09-19T01:19:12;15.00;66.10
10057;DHT22;5068;51.286;7.518;2023-09-19T01:21:21;15.00;66.10
10057;DHT22;5068;51.286;7.518;2023-09-19T01:23:10;15.00;66.00
10057;DHT22;5068;51.286;7.518;2023-09-19T01:25:32;15.00;66.00
10057;DHT22;5068;51.286;7.518;2023-09-19T01:27:30;15.00;66.30
10057;DHT22;5068;51.286;7.518;2023-09-19T01:29:36;15.00;66.00
10057;DHT22;5068;51.286;7.518;2023-09-19T01:31:13;15.00;66.00
10057;DHT22;5068;51.286;7.518;2023-09-19T01:32:49;14.90;66.10
10057;DHT22;5068;51.286;7.518;2023-09-19T01:34:24;14.90;66.20
10057;DHT22;5068;51.286;7.518;2023-09-19T01:35:58;14.90;66.10
10057;DHT22;5068;51.286;7.518;2023-09-19T01:37:31;14.90;66.10
10057;DHT22;5068;51.286;7.518;2023-09-19T01:39:06;14.90;66.10
10057;DHT22;5068;51.286;7.518;2023-09-19T01:40:43;14.90;66.00
10057;DHT22;5068;51.286;7.518;2023-09-19T01:42:35;14.80;65.80
10057;DHT22;5068;51.286;7.518;2023-09-19T01:44:19;14.80;65.70
10057;DHT22;5068;51.286;7.518;2023-09-19T01:46:04;14.80;65.80
10057;DHT22;5068;51.286;7.518;2023-09-19T01:47:52;14.80;65.80
10057;DHT22;5068;51.286;7.518;2023-09-19T01:49:31;14.80;65.60
10057;DHT22;5068;51.286;7.518;2023-09-19T01:51:11;14.80;65.70
10057;DHT22;5068;51.286;7.518;2023-09-19T01:52:49;14.80;65.60
10057;DHT22;5068;51.286;7.518;2023-09-19T01:54:31;14.80;65.80
10057;DHT22;5068;51.286;7.518;2023-09-19T01:56:08;14.80;65.50
10057;DHT22;5068;51.286;7.518;2023-09-19T01:57:58;14.80;65.30
10057;DHT22;5068;51.286;7.518;2023-09-19T01:59:43;14.80;65.50
10057;DHT22;5068;51.286;7.518;2023-09-19T02:01:22;14.80;65.60
10057;DHT22;5068;51.286;7.518;2023-09-19T02:03:00;14.80;65.70
10057;DHT22;5068;51.286;7.518;2023-09-19T02:04:33;14.70;65.60
10057;DHT22;5068;51.286;7.518;2023-09-19T02:06:07;14.70;65.50
10057;DHT22;5068;51.286;7.518;2023-09-19T02:07:43;14.70;65.40
10057;DHT22;5068;51.286;7.518;2023-09-19T02:09:17;14.70;65.60
10057;DHT22;5068;51.286;7.518;2023-09-19T02:10:49;14.70;65.70
10057;DHT22;5068;51.286;7.518;2023-09-19T02:12:24;14.70;65.60
10057;DHT22;5068;51.286;7.518;2023-09-19T02:13:57;14.60;65.40
10057;DHT22;5068;51.286;7.518;2023-09-19T02:15:31;14.60;65.40
10057;DHT22;5068;51.286;7.518;2023-09-19T02:17:06;14.60;65.40
10057;DHT22;5068;51.286;7.518;2023-09-19T02:18:44;14.60;65.70
10057;DHT22;5068;51.286;7.518;2023-09-19T02:20:18;14.60;65.90
10057;DHT22;5068;51.286;7.518;2023-09-19T02:21:52;14.60;64.80
10057;DHT22;5068;51.286;7.518;2023-09-19T02:23:24;14.60;64.80
10057;DHT22;5068;51.286;7.518;2023-09-19T02:24:58;14.60;64.90
10057;DHT22;5068;51.286;7.518;2023-09-19T02:26:32;14.50;64.80
10057;DHT22;5068;51.286;7.518;2023-09-19T02:28:11;14.50;64.80
10057;DHT22;5068;51.286;7.518;2023-09-19T02:29:43;14.50;65.10
10057;DHT22;5068;51.286;7.518;2023-09-19T02:31:17;14.50;65.20
10057;DHT22;5068;51.286;7.518;2023-09-19T02:32:50;14.50;65.20
10057;DHT22;5068;51.286;7.518;2023-09-19T02:34:25;14.50;65.10
10057;DHT22;5068;51.286;7.518;2023-09-19T02:35:57;14.50;65.10
10057;DHT22;5068;51.286;7.518;2023-09-19T02:37:32;14.50;65.10
10057;DHT22;5068;51.286;7.518;2023-09-19T02:39:05;14.50;65.10
10057;DHT22;5068;51.286;7.518;2023-09-19T02:40:40;14.50;64.90
10057;DHT22;5068;51.286;7.518;2023-09-19T02:42:13;14.40;64.70
10057;DHT22;5068;51.286;7.518;2023-09-19T02:43:46;14.50;64.60
10057;DHT22;5068;51.286;7.518;2023-09-19T02:45:19;14.40;64.50
10057;DHT22;5068;51.286;7.518;2023-09-19T02:46:55;14.40;64.70
10057;DHT22;5068;51.286;7.518;2023-09-19T02:48:29;14.40;64.70
10057;DHT22;5068;51.286;7.518;2023-09-19T02:50:05;14.40;64.60
10057;DHT22;5068;51.286;7.518;2023-09-19T02:51:40;14.40;64.70
10057;DHT22;5068;51.286;7.518;2023-09-19T02:53:12;14.40;64.70
10057;DHT22;5068;51.286;7.518;2023-09-19T02:54:46;14.30;64.70
10057;DHT22;5068;51.286;7.518;2023-09-19T02:56:19;14.30;64.80
10057;DHT22;5068;51.286;7.518;2023-09-19T02:57:53;14.30;64.80
10057;DHT22;5068;51.286;7.518;2023-09-19T02:59:26;14.30;64.90
10057;DHT22;5068;51.286;7.518;2023-09-19T03:01:08;14.30;64.50
10057;DHT22;5068;51.286;7.518;2023-09-19T03:02:41;14.20;64.10
10057;DHT22;5068;51.286;7.518;2023-09-19T03:04:17;14.30;64.20
10057;DHT22;5068;51.286;7.518;2023-09-19T03:05:54;14.20;63.70
10057;DHT22;5068;51.286;7.518;2023-09-19T03:07:27;14.20;63.60
10057;DHT22;5068;51.286;7.518;2023-09-19T03:09:00;14.20;63.70
10057;DHT22;5068;51.286;7.518;2023-09-19T03:10:37;14.20;64.20
10057;DHT22;5068;51.286;7.518;2023-09-19T03:12:10;14.20;63.20
10057;DHT22;5068;51.286;7.518;2023-09-19T03:13:50;14.20;63.30
10057;DHT22;5068;51.286;7.518;2023-09-19T03:15:23;14.10;63.30
10057;DHT22;5068;51.286;7.518;2023-09-19T03:16:57;14.10;63.10
10057;DHT22;5068;51.286;7.518;2023-09-19T03:18:32;14.10;63.20
10057;DHT22;5068;51.286;7.518;2023-09-19T03:20:07;14.10;63.30
10057;DHT22;5068;51.286;7.518;2023-09-19T03:21:43;14.10;63.60
10057;DHT22;5068;51.286;7.518;2023-09-19T03:23:15;14.10;63.70
10057;DHT22;5068;51.286;7.518;2023-09-19T03:24:49;14.10;63.50
10057;DHT22;5068;51.286;7.518;2023-09-19T03:26:21;14.10;63.20
10057;DHT22;5068;51.286;7.518;2023-09-19T03:27:56;14.10;63.10
10057;DHT22;5068;51.286;7.518;2023-09-19T03:29:30;14.10;63.30
10057;DHT22;5068;51.286;7.518;2023-09-19T03:31:06;14.00;63.10
10057;DHT22;5068;51.286;7.518;2023-09-19T03:32:44;14.00;62.90
10057;DHT22;5068;51.286;7.518;2023-09-19T03:34:19;14.00;62.70
10057;DHT22;5068;51.286;7.518;2023-09-19T03:35:52;14.00;62.60
10057;DHT22;5068;51.286;7.518;2023-09-19T03:37:28;14.00;62.70
10057;DHT22;5068;51.286;7.518;2023-09-19T03:39:01;14.00;62.90
10057;DHT22;5068;51.286;7.518;2023-09-19T03:40:36;14.00;63.00
10057;DHT22;5068;51.286;7.518;2023-09-19T03:42:10;14.00;62.80
10057;DHT22;5068;51.286;7.518;2023-09-19T03:43:42;14.00;62.80
10057;DHT22;5068;51.286;7.518;2023-09-19T03:45:16;13.90;62.60
10057;DHT22;5068;51.286;7.518;2023-09-19T03:46:55;14.00;62.80
10057;DHT22;5068;51.286;7.518;2023-09-19T03:48:29;13.90;62.70
10057;DHT22;5068;51.286;7.518;2023-09-19T03:50:03;13.90;62.50
10057;DHT22;5068;51.286;7.518;2023-09-19T03:51:36;13.90;62.50
10057;DHT22;5068;51.286;7.518;2023-09-19T03:53:11;13.90;62.50
10057;DHT22;5068;51.286;7.518;2023-09-19T03:54:44;13.90;62.30
10057;DHT22;5068;51.286;7.518;2023-09-19T03:56:18;13.80;62.30
10057;DHT22;5068;51.286;7.518;2023-09-19T03:57:50;13.90;62.70
10057;DHT22;5068;51.286;7.518;2023-09-19T03:59:25;13.80;62.60
10057;DHT22;5068;51.286;7.518;2023-09-19T04:00:59;13.90;62.60
10057;DHT22;5068;51.286;7.518;2023-09-19T04:02:33;13.80;62.50
10057;DHT22;5068;51.286;7.518;2023-09-19T04:04:05;13.80;62.60
10057;DHT22;5068;51.286;7.518;2023-09-19T04:05:41;13.80;62.80
10057;DHT22;5068;51.286;7.518;2023-09-19T04:07:13;13.80;62.70
10057;DHT22;5068;51.286;7.518;2023-09-19T04:08:48;13.80;62.60
10057;DHT22;5068;51.286;7.518;2023-09-19T04:10:21;13.80;62.80
10057;DHT22;5068;51.286;7.518;2023-09-19T04:11:54;13.80;62.90
10057;DHT22;5068;51.286;7.518;2023-09-19T04:13:26;13.70;62.80
10057;DHT22;5068;51.286;7.518;2023-09-19T04:15:00;13.70;62.80
10057;DHT22;5068;51.286;7.518;2023-09-19T04:16:34;13.70;62.90
10057;DHT22;5068;51.286;7.518;2023-09-19T04:18:07;13.70;63.00
10057;DHT22;5068;51.286;7.518;2023-09-19T04:19:40;13.70;63.00
10057;DHT22;5068;51.286;7.518;2023-09-19T04:21:15;13.70;63.40
10057;DHT22;5068;51.286;7.518;2023-09-19T04:22:50;13.70;63.50
10057;DHT22;5068;51.286;7.518;2023-09-19T04:24:23;13.70;63.50
10057;DHT22;5068;51.286;7.518;2023-09-19T04:25:57;13.70;63.50
10057;DHT22;5068;51.286;7.518;2023-09-19T04:27:29;13.60;63.40
10057;DHT22;5068;51.286;7.518;2023-09-19T04:29:03;13.60;64.30
10057;DHT22;5068;51.286;7.518;2023-09-19T04:30:38;13.60;63.60
10057;DHT22;5068;51.286;7.518;2023-09-19T04:32:12;13.60;63.60
10057;DHT22;5068;51.286;7.518;2023-09-19T04:33:45;13.60;64.40
10057;DHT22;5068;51.286;7.518;2023-09-19T04:35:19;13.50;63.60
10057;DHT22;5068;51.286;7.518;2023-09-19T04:36:51;13.50;63.70
10057;DHT22;5068;51.286;7.518;2023-09-19T04:38:25;13.50;63.80
10057;DHT22;5068;51.286;7.518;2023-09-19T04:40:01;13.50;64.00
10057;DHT22;5068;51.286;7.518;2023-09-19T04:41:36;13.50;64.20
10057;DHT22;5068;51.286;7.518;2023-09-19T04:43:13;13.40;64.00
10057;DHT22;5068;51.286;7.518;2023-09-19T04:44:47;13.40;64.00
10057;DHT22;5068;51.286;7.518;2023-09-19T04:46:21;13.40;64.00
10057;DHT22;5068;51.286;7.518;2023-09-19T04:47:53;13.30;64.00
10057;DHT22;5068;51.286;7.518;2023-09-19T04:49:28;13.30;64.10
10057;DHT22;5068;51.286;7.518;2023-09-19T04:51:00;13.30;64.10
10057;DHT22;5068;51.286;7.518;2023-09-19T04:52:35;13.30;64.10
10057;DHT22;5068;51.286;7.518;2023-09-19T04:54:07;13.30;64.20
10057;DHT22;5068;51.286;7.518;2023-09-19T04:55:42;13.20;64.10
10057;DHT22;5068;51.286;7.518;2023-09-19T04:57:14;13.20;64.30
10057;DHT22;5068;51.286;7.518;2023-09-19T04:58:48;13.20;64.30
10057;DHT22;5068;51.286;7.518;2023-09-19T05:00:21;13.20;64.40
10057;DHT22;5068;51.286;7.518;2023-09-19T05:01:55;13.10;64.40
10057;DHT22;5068;51.286;7.518;2023-09-19T05:03:28;13.10;64.30
10057;DHT22;5068;51.286;7.518;2023-09-19T05:05:01;13.10;64.50
10057;DHT22;5068;51.286;7.518;2023-09-19T05:06:34;13.10;64.60
10057;DHT22;5068;51.286;7.518;2023-09-19T05:08:08;13.00;64.40
10057;DHT22;5068;51.286;7.518;2023-09-19T05:09:41;13.00;64.50
10057;DHT22;5068;51.286;7.518;2023-09-19T05:11:15;13.10;64.70
10057;DHT22;5068;51.286;7.518;2023-09-19T05:12:48;13.00;64.80
10057;DHT22;5068;51.286;7.518;2023-09-19T05:14:25;13.00;64.80
10057;DHT22;5068;51.286;7.518;2023-09-19T05:16:00;12.90;64.70
10057;DHT22;5068;51.286;7.518;2023-09-19T05:17:34;12.90;64.90
10057;DHT22;5068;51.286;7.518;2023-09-19T05:19:08;12.90;65.00
10057;DHT22;5068;51.286;7.518;2023-09-19T05:20:43;12.90;65.10
10057;DHT22;5068;51.286;7.518;2023-09-19T05:22:16;12.90;65.20
10057;DHT22;5068;51.286;7.518;2023-09-19T05:23:51;12.80;65.10
10057;DHT22;5068;51.286;7.518;2023-09-19T05:25:24;12.80;65.50
10057;DHT22;5068;51.286;7.518;2023-09-19T05:27:02;12.80;65.30
10057;DHT22;5068;51.286;7.518;2023-09-19T05:28:36;12.80;65.60
10057;DHT22;5068;51.286;7.518;2023-09-19T05:30:10;12.70;65.50
10057;DHT22;5068;51.286;7.518;2023-09-19T05:31:46;12.70;65.60
10057;DHT22;5068;51.286;7.518;2023-09-19T05:33:19;12.70;65.60
10057;DHT22;5068;51.286;7.518;2023-09-19T05:34:52;12.70;65.60
10057;DHT22;5068;51.286;7.518;2023-09-19T05:36:28;12.70;65.50
10057;DHT22;5068;51.286;7.518;2023-09-19T05:38:01;12.70;65.60
10057;DHT22;5068;51.286;7.518;2023-09-19T05:39:37;12.60;65.50
10057;DHT22;5068;51.286;7.518;2023-09-19T05:41:09;12.60;65.70
10057;DHT22;5068;51.286;7.518;2023-09-19T05:42:47;12.60;65.90
10057;DHT22;5068;51.286;7.518;2023-09-19T05:44:19;12.60;66.10
10057;DHT22;5068;51.286;7.518;2023-09-19T05:45:52;12.60;66.10
10057;DHT22;5068;51.286;7.518;2023-09-19T05:47:28;12.60;66.30
10057;DHT22;5068;51.286;7.518;2023-09-19T05:49:01;12.60;66.40
10057;DHT22;5068;51.286;7.518;2023-09-19T05:50:35;12.60;66.50
10057;DHT22;5068;51.286;7.518;2023-09-19T05:52:08;12.60;66.60
10057;DHT22;5068;51.286;7.518;2023-09-19T05:53:40;12.60;66.60
10057;DHT22;5068;51.286;7.518;2023-09-19T05:55:15;12.60;66.80
10057;DHT22;5068;51.286;7.518;2023-09-19T05:56:48;12.50;66.70
10057;DHT22;5068;51.286;7.518;2023-09-19T05:58:25;12.50;66.70
10057;DHT22;5068;51.286;7.518;2023-09-19T05:59:58;12.50;66.70
10057;DHT22;5068;51.286;7.518;2023-09-19T06:01:31;12.50;66.80
10057;DHT22;5068;51.286;7.518;2023-09-19T06:03:04;12.50;67.00
10057;DHT22;5068;51.286;7.518;2023-09-19T06:04:38;12.50;67.20
10057;DHT22;5068;51.286;7.518;2023-09-19T06:06:12;12.60;67.50
10057;DHT22;5068;51.286;7.518;2023-09-19T06:07:46;12.50;67.40
10057;DHT22;5068;51.286;7.518;2023-09-19T06:09:18;12.60;67.60
10057;DHT22;5068;51.286;7.518;2023-09-19T06:10:55;12.50;67.60
10057;DHT22;5068;51.286;7.518;2023-09-19T06:12:28;12.50;67.60
10057;DHT22;5068;51.286;7.518;2023-09-19T06:14:03;12.50;67.70
10057;DHT22;5068;51.286;7.518;2023-09-19T06:15:36;12.60;68.00
10057;DHT22;5068;51.286;7.518;2023-09-19T06:17:09;12.60;68.10
10057;DHT22;5068;51.286;7.518;2023-09-19T06:18:42;12.60;68.40
10057;DHT22;5068;51.286;7.518;2023-09-19T06:20:16;12.70;68.50
10057;DHT22;5068;51.286;7.518;2023-09-19T06:21:49;12.60;69.20
10057;DHT22;5068;51.286;7.518;2023-09-19T06:23:23;12.60;68.50
10057;DHT22;5068;51.286;7.518;2023-09-19T06:24:56;12.60;68.50
10057;DHT22;5068;51.286;7.518;2023-09-19T06:26:29;12.60;68.50
10057;DHT22;5068;51.286;7.518;2023-09-19T06:28:03;12.70;68.70
10057;DHT22;5068;51.286;7.518;2023-09-19T06:29:38;12.70;68.70
10057;DHT22;5068;51.286;7.518;2023-09-19T06:31:11;12.80;69.30
10057;DHT22;5068;51.286;7.518;2023-09-19T06:32:45;12.70;68.80
10057;DHT22;5068;51.286;7.518;2023-09-19T06:34:17;12.80;68.80
10057;DHT22;5068;51.286;7.518;2023-09-19T06:35:51;12.80;68.80
10057;DHT22;5068;51.286;7.518;2023-09-19T06:37:29;12.90;68.90
10057;DHT22;5068;51.286;7.518;2023-09-19T06:39:03;12.90;68.90
10057;DHT22;5068;51.286;7.518;2023-09-19T06:40:38;12.90;68.90
10057;DHT22;5068;51.286;7.518;2023-09-19T06:42:14;12.90;68.90
10057;DHT22;5068;51.286;7.518;2023-09-19T06:43:52;12.90;68.50
10057;DHT22;5068;51.286;7.518;2023-09-19T06:45:28;13.00;68.30
10057;DHT22;5068;51.286;7.518;2023-09-19T06:47:00;13.00;68.00
10057;DHT22;5068;51.286;7.518;2023-09-19T06:48:34;13.00;67.60
10057;DHT22;5068;51.286;7.518;2023-09-19T06:50:07;13.10;67.30
10057;DHT22;5068;51.286;7.518;2023-09-19T06:51:45;13.10;67.30
10057;DHT22;5068;51.286;7.518;2023-09-19T06:53:20;13.10;67.10
10057;DHT22;5068;51.286;7.518;2023-09-19T06:54:55;13.10;67.00
10057;DHT22;5068;51.286;7.518;2023-09-19T06:56:29;13.20;67.10
10057;DHT22;5068;51.286;7.518;2023-09-19T06:58:02;13.20;67.00
10057;DHT22;5068;51.286;7.518;2023-09-19T06:59:38;13.20;66.90
10057;DHT22;5068;51.286;7.518;2023-09-19T07:01:13;13.20;66.80
10057;DHT22;5068;51.286;7.518;2023-09-19T07:02:54;13.30;66.60
10057;DHT22;5068;51.286;7.518;2023-09-19T07:04:28;13.30;66.30
10057;DHT22;5068;51.286;7.518;2023-09-19T07:06:00;13.30;66.20
10057;DHT22;5068;51.286;7.518;2023-09-19T07:07:36;13.30;66.20
10057;DHT22;5068;51.286;7.518;2023-09-19T07:09:08;13.40;66.30
10057;DHT22;5068;51.286;7.518;2023-09-19T07:10:42;13.40;66.30
10057;DHT22;5068;51.286;7.518;2023-09-19T07:12:20;13.40;66.30
10057;DHT22;5068;51.286;7.518;2023-09-19T07:13:53;13.50;66.40
10057;DHT22;5068;51.286;7.518;2023-09-19T07:15:27;13.50;66.30
10057;DHT22;5068;51.286;7.518;2023-09-19T07:17:03;13.50;66.00
10057;DHT22;5068;51.286;7.518;2023-09-19T07:18:37;13.60;66.00
10057;DHT22;5068;51.286;7.518;2023-09-19T07:20:09;13.60;65.90
10057;DHT22;5068;51.286;7.518;2023-09-19T07:21:47;13.60;65.70
10057;DHT22;5068;51.286;7.518;2023-09-19T07:23:22;13.70;65.50
10057;DHT22;5068;51.286;7.518;2023-09-19T07:24:55;13.70;65.50
10057;DHT22;5068;51.286;7.518;2023-09-19T07:26:27;13.80;65.50
10057;DHT22;5068;51.286;7.518;2023-09-19T07:28:01;13.80;65.40
10057;DHT22;5068;51.286;7.518;2023-09-19T07:29:34;13.80;65.40
10057;DHT22;5068;51.286;7.518;2023-09-19T07:31:07;13.80;65.40
10057;DHT22;5068;51.286;7.518;2023-09-19T07:32:43;13.80;65.20
10057;DHT22;5068;51.286;7.518;2023-09-19T07:34:16;13.90;65.30
10057;DHT22;5068;51.286;7.518;2023-09-19T07:35:50;13.90;65.30
10057;DHT22;5068;51.286;7.518;2023-09-19T07:37:23;14.00;65.00
10057;DHT22;5068;51.286;7.518;2023-09-19T07:38:57;14.00;65.00
10057;DHT22;5068;51.286;7.518;2023-09-19T07:40:51;14.00;65.00
10057;DHT22;5068;51.286;7.518;2023-09-19T07:42:24;14.00;64.90
10057;DHT22;5068;51.286;7.518;2023-09-19T07:43:57;14.10;64.90
10057;DHT22;5068;51.286;7.518;2023-09-19T07:45:31;14.10;64.60
10057;DHT22;5068;51.286;7.518;2023-09-19T07:47:05;14.10;64.50
10057;DHT22;5068;51.286;7.518;2023-09-19T07:48:38;14.10;64.40
10057;DHT22;5068;51.286;7.518;2023-09-19T07:50:12;14.20;64.40
10057;DHT22;5068;51.286;7.518;2023-09-19T07:51:45;14.20;64.50
10057;DHT22;5068;51.286;7.518;2023-09-19T07:53:18;14.30;64.40
10057;DHT22;5068;51.286;7.518;2023-09-19T07:54:51;14.30;64.20
10057;DHT22;5068;51.286;7.518;2023-09-19T07:56:25;14.30;64.00
10057;DHT22;5068;51.286;7.518;2023-09-19T07:57:58;14.40;64.00
10057;DHT22;5068;51.286;7.518;2023-09-19T07:59:31;14.40;64.10
10057;DHT22;5068;51.286;7.518;2023-09-19T08:01:05;14.40;63.80
10057;DHT22;5068;51.286;7.518;2023-09-19T08:02:39;14.50;63.90
10057;DHT22;5068;51.286;7.518;2023-09-19T08:04:15;14.50;63.80
10057;DHT22;5068;51.286;7.518;2023-09-19T08:05:49;14.50;64.30
10057;DHT22;5068;51.286;7.518;2023-09-19T08:07:23;14.60;63.40
10057;DHT22;5068;51.286;7.518;2023-09-19T08:08:55;14.60;63.40
10057;DHT22;5068;51.286;7.518;2023-09-19T08:10:32;14.60;63.30
10057;DHT22;5068;51.286;7.518;2023-09-19T08:12:07;14.70;63.10
10057;DHT22;5068;51.286;7.518;2023-09-19T08:13:42;14.70;63.10
10057;DHT22;5068;51.286;7.518;2023-09-19T08:15:19;14.70;62.80
10057;DHT22;5068;51.286;7.518;2023-09-19T08:16:56;14.80;62.70
10057;DHT22;5068;51.286;7.518;2023-09-19T08:18:33;14.80;62.40
10057;DHT22;5068;51.286;7.518;2023-09-19T08:20:11;14.80;62.20
10057;DHT22;5068;51.286;7.518;2023-09-19T08:21:51;14.80;61.90
10057;DHT22;5068;51.286;7.518;2023-09-19T08:23:24;14.80;61.90
10057;DHT22;5068;51.286;7.518;2023-09-19T08:25:00;14.80;61.90
10057;DHT22;5068;51.286;7.518;2023-09-19T08:26:39;14.90;62.00
10057;DHT22;5068;51.286;7.518;2023-09-19T08:28:12;14.90;62.70
10057;DHT22;5068;51.286;7.518;2023-09-19T08:29:51;14.90;61.70
10057;DHT22;5068;51.286;7.518;2023-09-19T08:31:24;14.90;61.60
10057;DHT22;5068;51.286;7.518;2023-09-19T08:32:59;14.90;61.80
10057;DHT22;5068;51.286;7.518;2023-09-19T08:34:48;15.00;61.80
10057;DHT22;5068;51.286;7.518;2023-09-19T08:36:23;15.00;61.60
10057;DHT22;5068;51.286;7.518;2023-09-19T08:37:56;15.00;61.70
10057;DHT22;5068;51.286;7.518;2023-09-19T08:39:32;15.00;61.70
10057;DHT22;5068;51.286;7.518;2023-09-19T08:41:08;15.00;61.60
10057;DHT22;5068;51.286;7.518;2023-09-19T08:42:48;15.00;61.40
10057;DHT22;5068;51.286;7.518;2023-09-19T08:44:22;15.00;61.00
10057;DHT22;5068;51.286;7.518;2023-09-19T08:46:09;15.10;61.30
10057;DHT22;5068;51.286;7.518;2023-09-19T08:47:47;15.10;61.00
10057;DHT22;5068;51.286;7.518;2023-09-19T08:50:00;15.10;61.00
10057;DHT22;5068;51.286;7.518;2023-09-19T08:51:42;15.10;60.90
10057;DHT22;5068;51.286;7.518;2023-09-19T08:53:26;15.10;61.00
10057;DHT22;5068;51.286;7.518;2023-09-19T08:55:06;15.20;61.00
10057;DHT22;5068;51.286;7.518;2023-09-19T08:56:41;15.20;60.70
10057;DHT22;5068;51.286;7.518;2023-09-19T08:58:17;15.20;60.70
10057;DHT22;5068;51.286;7.518;2023-09-19T08:59:57;15.20;60.60
10057;DHT22;5068;51.286;7.518;2023-09-19T09:01:32;15.20;60.60
10057;DHT22;5068;51.286;7.518;2023-09-19T09:03:09;15.20;60.70
10057;DHT22;5068;51.286;7.518;2023-09-19T09:04:45;15.20;60.60
10057;DHT22;5068;51.286;7.518;2023-09-19T09:06:22;15.30;60.90
10057;DHT22;5068;51.286;7.518;2023-09-19T09:08:02;15.30;60.70
10057;DHT22;5068;51.286;7.518;2023-09-19T09:09:38;15.30;60.50
10057;DHT22;5068;51.286;7.518;2023-09-19T09:11:15;15.40;60.40
10057;DHT22;5068;51.286;7.518;2023-09-19T09:12:49;15.40;60.40
10057;DHT22;5068;51.286;7.518;2023-09-19T09:14:25;15.40;60.10
10057;DHT22;5068;51.286;7.518;2023-09-19T09:15:58;15.40;60.50
10057;DHT22;5068;51.286;7.518;2023-09-19T09:17:31;15.50;60.20
10057;DHT22;5068;51.286;7.518;2023-09-19T09:19:05;15.50;60.10
10057;DHT22;5068;51.286;7.518;2023-09-19T09:20:39;15.50;60.00
10057;DHT22;5068;51.286;7.518;2023-09-19T09:22:11;15.50;60.10
10057;DHT22;5068;51.286;7.518;2023-09-19T09:23:46;15.60;60.20
10057;DHT22;5068;51.286;7.518;2023-09-19T09:25:22;15.60;59.70
10057;DHT22;5068;51.286;7.518;2023-09-19T09:27:03;15.60;59.70
10057;DHT22;5068;51.286;7.518;2023-09-19T09:28:45;15.70;59.70
10057;DHT22;5068;51.286;7.518;2023-09-19T09:30:33;15.70;59.70
10057;DHT22;5068;51.286;7.518;2023-09-19T09:32:16;15.70;59.50
10057;DHT22;5068;51.286;7.518;2023-09-19T09:33:55;15.70;59.60
10057;DHT22;5068;51.286;7.518;2023-09-19T09:35:32;15.80;59.60
10057;DHT22;5068;51.286;7.518;2023-09-19T09:37:04;15.80;59.50
10057;DHT22;5068;51.286;7.518;2023-09-19T09:38:46;15.80;59.40
10057;DHT22;5068;51.286;7.518;2023-09-19T09:40:21;15.90;59.00
10057;DHT22;5068;51.286;7.518;2023-09-19T09:42:05;15.90;59.10
10057;DHT22;5068;51.286;7.518;2023-09-19T09:43:44;16.00;59.20
10057;DHT22;5068;51.286;7.518;2023-09-19T09:45:21;16.00;59.00
10057;DHT22;5068;51.286;7.518;2023-09-19T09:47:00;16.10;59.20
10057;DHT22;5068;51.286;7.518;2023-09-19T09:48:48;16.10;59.10
10057;DHT22;5068;51.286;7.518;2023-09-19T09:50:55;16.10;59.20
10057;DHT22;5068;51.286;7.518;2023-09-19T09:52:44;16.20;59.10
10057;DHT22;5068;51.286;7.518;2023-09-19T09:54:19;16.20;59.00
10057;DHT22;5068;51.286;7.518;2023-09-19T09:55:57;16.30;58.90
10057;DHT22;5068;51.286;7.518;2023-09-19T09:57:34;16.30;58.50
10057;DHT22;5068;51.286;7.518;2023-09-19T09:59:08;16.40;58.70
10057;DHT22;5068;51.286;7.518;2023-09-19T10:00:52;16.40;58.60
10057;DHT22;5068;51.286;7.518;2023-09-19T10:02:30;16.50;58.10
10057;DHT22;5068;51.286;7.518;2023-09-19T10:04:27;16.50;58.30
10057;DHT22;5068;51.286;7.518;2023-09-19T10:06:03;16.60;58.40
10057;DHT22;5068;51.286;7.518;2023-09-19T10:07:51;16.60;58.30
10057;DHT22;5068;51.286;7.518;2023-09-19T10:09:28;16.60;58.20
10057;DHT22;5068;51.286;7.518;2023-09-19T10:11:15;16.70;58.10
10057;DHT22;5068;51.286;7.518;2023-09-19T10:12:48;16.70;57.90
10057;DHT22;5068;51.286;7.518;2023-09-19T10:14:27;16.80;57.90
10057;DHT22;5068;51.286;7.518;2023-09-19T10:16:06;16.90;57.60